Time;durP1;ratioP1;P1;durP2;ratioP2;P2;SDS_P1;SDS_P2;PMS_P1;PMS_P2;Temp;Humidity;BMP_temperature;BMP_pressure;BME280_temperature;BME280_humidity;BME280_pressure;Samples;Min_cycle;Max_cycle;Signal;HPM_P1;HPM_P2
2021/09/30 00:01:35;;;;;;;1.80;0.70;;;12.90;72.20;;;;;;5112997;28;20180;-64
2021/09/30 00:04:04;;;;;;;2.60;1.00;;;13.00;73.00;;;;;;5113170;28;20232;-65
2021/09/30 00:06:31;;;;;;;2.13;0.98;;;13.00;73.50;;;;;;5112383;28;20180;-65
2021/09/30 00:08:58;;;;;;;4.95;0.70;;;12.90;70.70;;;;;;5112088;28;20185;-65
2021/09/30 00:11:27;;;;;;;2.08;1.00;;;12.90;71.70;;;;;;5112689;28;20192;-65
2021/09/30 00:13:58;;;;;;;3.88;1.10;;;12.90;70.10;;;;;;5112605;28;20600;-64
2021/09/30 00:33:24;;;;;;;3.20;0.80;;;12.70;71.10;;;;;;5036350;28;20183;-65
2021/09/30 00:36:00;;;;;;;4.03;0.93;;;12.70;69.70;;;;;;5092187;28;20657;-64
2021/09/30 00:41:50;;;;;;;1.80;1.00;;;12.70;70.40;;;;;;5117357;28;20191;-65
2021/09/30 00:47:41;;;;;;;1.95;0.90;;;12.80;70.70;;;;;;5117395;28;20281;-66
2021/09/30 00:50:32;;;;;;;1.90;0.68;;;12.80;71.10;;;;;;5117388;28;21143;-65
2021/09/30 00:53:53;;;;;;;2.00;1.00;;;12.80;71.90;;;;;;5117899;28;20283;-65
2021/09/30 01:18:59;;;;;;;3.72;1.05;;;12.90;71.20;;;;;;5106220;28;20219;-64
2021/09/30 02:21:45;;;;;;;1.40;0.70;;;12.70;71.60;;;;;;5098304;28;20224;-63
2021/09/30 02:58:27;;;;;;;4.38;1.17;;;12.40;70.60;;;;;;5114150;28;20234;-65
2021/09/30 03:00:56;;;;;;;4.10;1.40;;;12.50;71.30;;;;;;5112361;28;20526;-64
2021/09/30 03:03:25;;;;;;;1.75;1.25;;;12.40;71.20;;;;;;5113472;28;20660;-65
2021/09/30 03:05:54;;;;;;;3.65;1.13;;;12.40;71.20;;;;;;5095341;28;20271;-65
2021/09/30 03:08:25;;;;;;;3.35;0.60;;;12.50;71.50;;;;;;5113747;28;20188;-65
2021/09/30 03:10:54;;;;;;;3.53;0.88;;;12.50;72.20;;;;;;5113619;28;20176;-65
2021/09/30 03:13:22;;;;;;;1.73;0.80;;;12.50;72.20;;;;;;5113434;28;20179;-65
2021/09/30 03:15:55;;;;;;;2.42;0.88;;;12.50;72.40;;;;;;5113475;28;20562;-64
2021/09/30 03:18:30;;;;;;;5.68;3.42;;;12.50;72.30;;;;;;5113246;28;20210;-65
2021/09/30 03:23:56;;;;;;;4.00;1.10;;;12.40;72.20;;;;;;5060480;28;20269;-65
2021/09/30 03:26:25;;;;;;;2.03;1.17;;;12.40;72.60;;;;;;5103335;28;20189;-65
2021/09/30 03:28:53;;;;;;;2.50;1.00;;;12.40;72.80;;;;;;5113584;28;20192;-64
2021/09/30 03:31:21;;;;;;;4.30;0.80;;;12.40;73.20;;;;;;5113134;28;20671;-65
2021/09/30 03:33:49;;;;;;;2.03;1.10;;;12.40;73.10;;;;;;5113181;28;20223;-64
2021/09/30 03:36:16;;;;;;;4.82;1.10;;;12.40;73.30;;;;;;5113049;28;20188;-65
2021/09/30 03:38:49;;;;;;;2.90;1.35;;;12.30;72.90;;;;;;5111546;28;20269;-65
2021/09/30 03:41:18;;;;;;;4.38;2.08;;;12.30;73.40;;;;;;5113333;28;20656;-65
2021/09/30 03:43:45;;;;;;;7.15;1.02;;;12.30;73.80;;;;;;5113442;28;20623;-65
2021/09/30 03:46:12;;;;;;;3.10;0.80;;;12.30;73.90;;;;;;5112950;28;20188;-68
2021/09/30 03:48:40;;;;;;;2.13;1.00;;;12.30;74.10;;;;;;5112550;28;20225;-64
2021/09/30 03:51:12;;;;;;;2.45;0.90;;;12.30;74.60;;;;;;5113129;28;20288;-64
2021/09/30 03:53:56;;;;;;;3.78;0.93;;;12.30;74.60;;;;;;5112597;28;20187;-64
2021/09/30 03:56:49;;;;;;;4.30;1.10;;;12.40;74.70;;;;;;5112548;28;20188;-64
2021/09/30 03:59:22;;;;;;;3.63;0.70;;;12.40;74.20;;;;;;5112397;28;20208;-64
2021/09/30 04:01:58;;;;;;;3.90;0.90;;;12.40;74.60;;;;;;5113114;28;20261;-64
2021/09/30 04:04:29;;;;;;;1.70;0.93;;;12.40;74.60;;;;;;5112908;28;20186;-64
2021/09/30 04:06:57;;;;;;;1.88;0.80;;;12.40;75.20;;;;;;5113074;28;20192;-65
2021/09/30 04:09:27;;;;;;;4.35;0.88;;;12.40;75.30;;;;;;5113116;28;20190;-64
2021/09/30 04:11:58;;;;;;;2.25;1.00;;;12.40;75.20;;;;;;5112415;28;20180;-64
2021/09/30 04:14:28;;;;;;;4.07;0.95;;;12.40;75.80;;;;;;5113062;28;20206;-64
2021/09/30 04:16:56;;;;;;;3.10;0.80;;;12.40;75.90;;;;;;5112499;28;20239;-64
2021/09/30 04:19:24;;;;;;;1.60;0.80;;;12.50;76.20;;;;;;5112925;28;20219;-65
2021/09/30 04:21:53;;;;;;;3.13;0.90;;;12.40;76.00;;;;;;5111974;28;20646;-65
2021/09/30 04:24:21;;;;;;;3.08;1.30;;;12.40;76.30;;;;;;5112892;28;20184;-64
2021/09/30 04:26:49;;;;;;;2.17;1.27;;;12.40;76.40;;;;;;5111919;28;20219;-64
2021/09/30 04:29:19;;;;;;;2.35;1.13;;;12.40;75.60;;;;;;5092426;28;20235;-64
2021/09/30 04:31:46;;;;;;;1.80;1.05;;;12.40;75.60;;;;;;5101928;28;20182;-64
2021/09/30 04:34:14;;;;;;;2.25;1.48;;;12.40;75.40;;;;;;5112877;28;20185;-65
2021/09/30 04:36:42;;;;;;;3.35;1.00;;;12.30;75.00;;;;;;5112532;28;20195;-65
2021/09/30 04:39:10;;;;;;;3.35;1.50;;;12.30;75.50;;;;;;5113097;28;20216;-65
2021/09/30 04:41:37;;;;;;;2.55;1.55;;;12.30;75.60;;;;;;5112385;28;20264;-66
2021/09/30 04:44:04;;;;;;;3.70;1.52;;;12.30;74.70;;;;;;5112281;28;20181;-65
2021/09/30 04:46:33;;;;;;;2.50;1.13;;;12.30;74.20;;;;;;5112904;28;20219;-65
2021/09/30 04:49:00;;;;;;;2.17;1.10;;;12.20;73.80;;;;;;5112390;28;20184;-65
2021/09/30 04:51:27;;;;;;;3.58;1.10;;;12.20;73.00;;;;;;5112776;28;20651;-65
2021/09/30 04:53:54;;;;;;;2.67;0.80;;;12.20;73.30;;;;;;5111912;28;20184;-64
2021/09/30 04:56:22;;;;;;;5.15;1.20;;;12.20;73.00;;;;;;5112563;28;20184;-65
2021/09/30 04:58:49;;;;;;;2.35;0.93;;;12.20;73.80;;;;;;5112397;28;20292;-65
2021/09/30 05:01:16;;;;;;;2.78;1.17;;;12.10;74.10;;;;;;5112404;28;20253;-64
2021/09/30 05:03:45;;;;;;;2.45;0.80;;;12.10;74.40;;;;;;5112112;28;20176;-65
2021/09/30 05:06:12;;;;;;;3.15;1.00;;;12.10;74.70;;;;;;5111967;28;20188;-66
2021/09/30 05:08:42;;;;;;;2.50;1.30;;;12.10;75.40;;;;;;5105715;28;20212;-67
2021/09/30 05:11:13;;;;;;;1.70;0.98;;;12.00;74.20;;;;;;5109620;28;20534;-65
2021/09/30 05:13:41;;;;;;;3.65;1.25;;;11.90;74.20;;;;;;5110221;28;20236;-65
2021/09/30 05:16:10;;;;;;;1.90;1.15;;;11.90;75.20;;;;;;5109824;28;20217;-65
2021/09/30 05:18:40;;;;;;;2.08;1.55;;;11.90;75.00;;;;;;5109112;28;20216;-64
2021/09/30 05:21:09;;;;;;;2.63;1.20;;;11.90;75.10;;;;;;5109834;28;20188;-64
2021/09/30 05:23:37;;;;;;;2.20;1.25;;;11.90;75.60;;;;;;5111270;28;20274;-65
2021/09/30 05:26:05;;;;;;;2.70;1.27;;;11.90;76.00;;;;;;5112853;28;20271;-64
2021/09/30 05:28:32;;;;;;;2.30;1.35;;;11.80;77.60;;;;;;5113720;28;20192;-65
2021/09/30 05:31:05;;;;;;;1.90;1.10;;;11.80;77.00;;;;;;5113311;28;20199;-65
2021/09/30 05:33:50;;;;;;;2.35;1.17;;;11.80;78.00;;;;;;5113070;28;20279;-65
2021/09/30 05:36:21;;;;;;;2.75;1.42;;;11.80;77.30;;;;;;5095244;28;20180;-64
2021/09/30 05:38:48;;;;;;;2.53;1.40;;;11.80;77.30;;;;;;5112510;28;20259;-64
2021/09/30 05:41:17;;;;;;;3.30;1.50;;;11.80;78.20;;;;;;5112894;28;20259;-64
2021/09/30 05:43:50;;;;;;;1.60;0.95;;;11.80;78.80;;;;;;5113320;28;20195;-65
2021/09/30 05:46:19;;;;;;;2.60;1.10;;;11.80;79.00;;;;;;5108257;28;20209;-65
2021/09/30 05:48:46;;;;;;;2.50;1.05;;;11.90;79.60;;;;;;5094855;28;20189;-63
2021/09/30 05:51:13;;;;;;;2.50;1.15;;;11.90;79.50;;;;;;5103257;28;20184;-64
2021/09/30 05:53:42;;;;;;;1.90;1.10;;;12.00;79.60;;;;;;5104111;28;20181;-65
2021/09/30 05:56:09;;;;;;;4.70;1.00;;;12.00;80.00;;;;;;5105822;28;20256;-64
2021/09/30 05:58:37;;;;;;;2.90;1.55;;;12.10;80.40;;;;;;5112608;28;20216;-64
2021/09/30 06:01:10;;;;;;;2.38;1.10;;;12.20;77.80;;;;;;5111067;28;20194;-65
2021/09/30 06:12:07;;;;;;;3.30;2.10;;;12.20;78.50;;;;;;5100860;28;20186;-64
2021/09/30 06:14:35;;;;;;;2.25;1.50;;;12.30;79.20;;;;;;5101371;28;20697;-64
2021/09/30 06:17:04;;;;;;;2.53;1.65;;;12.40;78.50;;;;;;5108140;28;20231;-64
2021/09/30 06:19:31;;;;;;;3.63;1.40;;;12.50;78.40;;;;;;5098361;28;20224;-64
2021/09/30 06:21:58;;;;;;;2.60;1.33;;;12.50;78.40;;;;;;5106688;28;20202;-65
2021/09/30 06:24:27;;;;;;;2.22;1.60;;;12.60;78.10;;;;;;5112579;28;20200;-64
2021/09/30 06:26:56;;;;;;;2.30;1.15;;;12.60;77.10;;;;;;5109572;28;20189;-64
2021/09/30 06:29:25;;;;;;;2.25;1.50;;;12.70;77.60;;;;;;5094867;28;20250;-65
2021/09/30 06:31:53;;;;;;;10.07;1.92;;;12.70;76.60;;;;;;5108580;28;20180;-65
2021/09/30 06:34:20;;;;;;;2.60;1.23;;;12.80;76.30;;;;;;5111915;28;20243;-65
2021/09/30 06:36:48;;;;;;;2.53;1.45;;;12.90;76.50;;;;;;5111584;28;20180;-65
2021/09/30 06:39:15;;;;;;;3.15;1.40;;;12.90;75.90;;;;;;5110844;28;20203;-65
2021/09/30 06:41:43;;;;;;;2.42;1.08;;;13.00;76.30;;;;;;5108686;28;20184;-65
2021/09/30 06:44:10;;;;;;;2.95;1.08;;;13.10;76.00;;;;;;5114682;28;20595;-66
2021/09/30 06:46:37;;;;;;;4.23;1.20;;;13.40;74.30;;;;;;5115180;28;20290;-64
2021/09/30 06:49:04;;;;;;;2.23;1.00;;;13.60;73.50;;;;;;5115091;28;20521;-66
2021/09/30 06:51:33;;;;;;;7.32;1.70;;;14.00;73.70;;;;;;5114639;28;20934;-66
2021/09/30 06:54:00;;;;;;;2.63;1.45;;;14.40;73.00;;;;;;5115019;28;20619;-65
2021/09/30 06:56:28;;;;;;;2.97;1.20;;;14.60;70.50;;;;;;5114849;28;20185;-65
2021/09/30 06:59:03;;;;;;;4.53;2.90;;;14.80;69.20;;;;;;5114763;28;20469;-66
2021/09/30 07:01:30;;;;;;;5.03;2.07;;;15.40;68.70;;;;;;5114880;28;20425;-65
2021/09/30 07:03:57;;;;;;;4.33;1.07;;;16.70;65.60;;;;;;5114242;28;20465;-65
2021/09/30 07:06:25;;;;;;;3.67;1.40;;;17.70;58.60;;;;;;5114896;28;20533;-65
2021/09/30 07:08:52;;;;;;;5.07;1.10;;;19.20;59.70;;;;;;5114705;28;20813;-66
2021/09/30 07:11:19;;;;;;;4.30;0.97;;;21.20;55.10;;;;;;5114504;28;20969;-64
2021/09/30 07:13:46;;;;;;;3.77;1.50;;;22.90;48.00;;;;;;5114560;28;20444;-64
2021/09/30 07:16:14;;;;;;;4.33;1.10;;;24.60;43.80;;;;;;5114266;28;20865;-64
2021/09/30 07:18:41;;;;;;;2.13;1.00;;;26.40;42.10;;;;;;5114587;28;20979;-65
2021/09/30 07:21:10;;;;;;;5.70;1.20;;;28.30;38.30;;;;;;5114633;28;20426;-64
2021/09/30 07:23:37;;;;;;;2.50;1.03;;;30.00;33.20;;;;;;5114311;28;20521;-65
2021/09/30 07:26:09;;;;;;;2.20;0.90;;;31.00;29.00;;;;;;5113987;28;20470;-65
2021/09/30 07:28:39;;;;;;;2.40;1.20;;;30.50;28.40;;;;;;5114340;28;20427;-65
2021/09/30 07:31:07;;;;;;;2.30;1.00;;;31.10;28.00;;;;;;5114418;28;20768;-65
2021/09/30 07:33:36;;;;;;;3.53;0.97;;;32.10;25.60;;;;;;5114110;28;20916;-65
2021/09/30 07:36:08;;;;;;;3.90;1.00;;;33.20;25.00;;;;;;5114174;28;20519;-64
2021/09/30 07:38:35;;;;;;;2.33;1.10;;;34.10;26.10;;;;;;5113949;28;20477;-64
2021/09/30 07:41:02;;;;;;;3.93;1.00;;;35.10;22.10;;;;;;5114056;28;20511;-64
2021/09/30 07:43:34;;;;;;;2.93;0.67;;;35.30;22.70;;;;;;5113441;28;20465;-64
2021/09/30 07:46:09;;;;;;;3.57;1.00;;;35.70;22.40;;;;;;5113496;28;20513;-64
2021/09/30 07:48:42;;;;;;;2.47;0.90;;;36.70;21.40;;;;;;5113707;28;20432;-64
2021/09/30 07:51:09;;;;;;;4.47;1.30;;;37.80;20.40;;;;;;5114023;28;20514;-65
2021/09/30 07:53:36;;;;;;;3.20;1.03;;;38.20;20.30;;;;;;5113759;28;20521;-64
2021/09/30 07:56:03;;;;;;;2.60;1.20;;;38.10;18.50;;;;;;5113749;28;20513;-64
2021/09/30 07:58:31;;;;;;;4.03;1.60;;;37.00;19.10;;;;;;5113689;28;20430;-65
2021/09/30 08:00:58;;;;;;;2.33;1.00;;;37.10;19.80;;;;;;5113609;28;20514;-64
2021/09/30 08:03:27;;;;;;;2.10;1.00;;;37.40;18.10;;;;;;5113695;28;20469;-64
2021/09/30 08:05:55;;;;;;;2.23;0.80;;;35.70;17.80;;;;;;5113759;28;20449;-64
2021/09/30 08:08:23;;;;;;;3.27;1.10;;;33.50;18.80;;;;;;5113468;28;20524;-64
2021/09/30 08:10:50;;;;;;;5.07;1.10;;;31.70;20.70;;;;;;5113115;28;20938;-64
2021/09/30 08:13:17;;;;;;;3.57;0.87;;;30.00;22.80;;;;;;5113696;28;20506;-63
2021/09/30 08:15:44;;;;;;;3.00;1.20;;;28.50;24.10;;;;;;5113056;28;20978;-64
2021/09/30 08:18:11;;;;;;;2.10;1.00;;;26.90;25.40;;;;;;5113782;28;20430;-64
2021/09/30 08:20:41;;;;;;;2.80;0.93;;;25.40;26.80;;;;;;5113335;28;20513;-65
2021/09/30 08:23:11;;;;;;;2.27;0.80;;;24.50;28.60;;;;;;5113478;28;20436;-65
2021/09/30 08:25:37;;;;;;;5.00;1.47;;;24.40;30.40;;;;;;5113305;28;20425;-65
2021/09/30 08:28:05;;;;;;;2.83;0.80;;;24.50;30.30;;;;;;5113645;28;20529;-65
2021/09/30 08:30:32;;;;;;;3.93;0.83;;;25.10;29.70;;;;;;5113476;28;20426;-65
2021/09/30 08:33:00;;;;;;;2.47;0.90;;;25.00;28.90;;;;;;5112967;28;20485;-65
2021/09/30 08:35:27;;;;;;;2.37;0.80;;;26.80;30.90;;;;;;5113451;28;20426;-66
2021/09/30 08:37:54;;;;;;;3.23;0.80;;;30.60;27.70;;;;;;5113028;28;20456;-65
2021/09/30 08:40:23;;;;;;;2.30;1.10;;;33.90;23.90;;;;;;5113152;28;20477;-63
2021/09/30 08:42:50;;;;;;;3.13;0.93;;;36.70;21.60;;;;;;5113267;28;20430;-64
2021/09/30 08:45:20;;;;;;;2.77;0.80;;;38.10;18.50;;;;;;5113284;28;20517;-67
2021/09/30 08:47:54;;;;;;;3.03;0.93;;;37.20;17.30;;;;;;5113415;28;20426;-67
2021/09/30 08:50:21;;;;;;;3.67;0.80;;;36.50;18.60;;;;;;5113211;28;20483;-64
2021/09/30 08:52:48;;;;;;;3.87;1.07;;;38.10;20.00;;;;;;5112785;28;20432;-64
2021/09/30 08:55:15;;;;;;;2.27;0.80;;;40.50;17.00;;;;;;5113200;28;20759;-65
2021/09/30 08:57:46;;;;;;;3.00;1.07;;;41.40;14.40;;;;;;5113527;28;20425;-66
2021/09/30 09:00:15;;;;;;;2.53;0.90;;;41.80;14.60;;;;;;5117619;28;20564;-65
2021/09/30 09:02:46;;;;;;;2.60;0.93;;;41.00;13.70;;;;;;5117304;28;20458;-67
2021/09/30 09:05:14;;;;;;;2.77;0.97;;;41.30;15.50;;;;;;5117122;28;20436;-68
2021/09/30 09:07:52;;;;;;;1.90;0.70;;;43.20;14.60;;;;;;5116936;28;20465;-67
2021/09/30 09:10:22;;;;;;;2.50;0.77;;;45.50;13.60;;;;;;5116876;28;20509;-67
2021/09/30 09:13:01;;;;;;;3.10;1.00;;;45.70;11.30;;;;;;5116865;28;20430;-67
2021/09/30 09:15:37;;;;;;;2.87;0.60;;;43.00;11.20;;;;;;5116829;28;20466;-66
2021/09/30 09:18:20;;;;;;;2.10;0.87;;;40.20;12.20;;;;;;5117042;28;20772;-66
2021/09/30 09:20:49;;;;;;;2.27;0.87;;;37.30;13.40;;;;;;5116876;28;20476;-65
2021/09/30 09:23:16;;;;;;;1.80;0.90;;;35.10;14.90;;;;;;5116700;28;20935;-66
2021/09/30 09:25:43;;;;;;;2.33;1.00;;;33.40;16.70;;;;;;5116355;28;20434;-65
2021/09/30 09:28:11;;;;;;;2.27;1.13;;;32.50;19.60;;;;;;5116675;28;20840;-67
2021/09/30 09:30:43;;;;;;;3.17;1.00;;;33.50;20.40;;;;;;5116556;28;20428;-66
2021/09/30 09:33:13;;;;;;;3.27;1.00;;;35.20;18.60;;;;;;5116934;28;20469;-67
2021/09/30 09:35:53;;;;;;;3.33;1.00;;;36.60;18.40;;;;;;5116711;28;20892;-70
2021/09/30 09:38:22;;;;;;;4.73;1.00;;;39.30;17.40;;;;;;5116569;28;20458;-66
2021/09/30 09:40:53;;;;;;;5.50;1.10;;;42.00;16.20;;;;;;5116402;28;20474;-67
2021/09/30 09:43:33;;;;;;;3.73;1.00;;;44.10;13.70;;;;;;5116356;28;20434;-65
2021/09/30 09:46:03;;;;;;;2.33;1.00;;;45.80;12.50;;;;;;5116251;28;20616;-66
2021/09/30 09:48:33;;;;;;;3.27;1.00;;;46.70;11.40;;;;;;5116430;28;20431;-64
2021/09/30 09:51:05;;;;;;;2.67;0.97;;;47.80;10.90;;;;;;5116270;28;20435;-64
2021/09/30 09:53:34;;;;;;;2.70;0.90;;;48.30;10.20;;;;;;5115984;28;20429;-65
2021/09/30 09:56:15;;;;;;;2.37;0.80;;;48.60;8.90;;;;;;5116164;28;20531;-64
2021/09/30 09:58:49;;;;;;;3.03;0.90;;;48.20;8.40;;;;;;5116246;28;20508;-65
2021/09/30 10:01:20;;;;;;;2.90;1.03;;;48.20;9.20;;;;;;5115858;28;20473;-65
2021/09/30 10:04:01;;;;;;;2.90;1.17;;;48.60;8.40;;;;;;5116163;28;20430;-65
2021/09/30 10:06:30;;;;;;;1.73;0.70;;;48.00;8.90;;;;;;5116053;28;20457;-65
2021/09/30 10:08:57;;;;;;;2.10;0.73;;;48.10;9.40;;;;;;5115446;28;20521;-64
2021/09/30 10:11:26;;;;;;;2.47;0.80;;;49.00;9.20;;;;;;5115452;28;20537;-65
2021/09/30 10:13:56;;;;;;;2.57;0.90;;;50.10;8.30;;;;;;5115703;28;20479;-65
2021/09/30 10:16:26;;;;;;;3.40;1.07;;;51.00;8.10;;;;;;5115064;28;20493;-65
2021/09/30 10:18:57;;;;;;;5.50;4.97;;;51.30;7.90;;;;;;5115277;28;20440;-65
2021/09/30 10:21:25;;;;;;;2.83;1.83;;;52.00;7.90;;;;;;5115600;28;20472;-65
2021/09/30 10:23:57;;;;;;;2.83;0.90;;;52.80;7.20;;;;;;5115672;28;20778;-66
2021/09/30 10:26:29;;;;;;;2.97;1.00;;;53.60;6.80;;;;;;5115197;28;20784;-65
2021/09/30 10:28:59;;;;;;;2.27;1.10;;;54.00;6.70;;;;;;5115661;28;20437;-66
2021/09/30 10:31:31;;;;;;;3.00;0.80;;;54.40;6.10;;;;;;5115444;28;20477;-65
2021/09/30 10:34:00;;;;;;;2.87;0.83;;;54.40;6.60;;;;;;5115227;28;20475;-65
2021/09/30 10:36:39;;;;;;;2.77;2.07;;;54.50;6.20;;;;;;5115041;28;20458;-65
2021/09/30 10:39:18;;;;;;;7.53;6.83;;;54.70;6.40;;;;;;5115400;28;20422;-65
2021/09/30 10:41:45;;;;;;;2.90;0.90;;;54.90;6.00;;;;;;5115129;28;20509;-65
2021/09/30 10:44:15;;;;;;;3.37;1.27;;;54.80;5.50;;;;;;5115453;28;20422;-66
2021/09/30 10:47:01;;;;;;;1.70;1.00;;;54.60;6.10;;;;;;5114484;28;20509;-66
2021/09/30 10:49:40;;;;;;;2.30;1.00;;;54.70;6.20;;;;;;5114599;28;20564;-65
2021/09/30 10:52:32;;;;;;;2.23;0.90;;;55.20;5.80;;;;;;5112099;28;20532;-65
2021/09/30 10:55:28;;;;;;;1.67;0.63;;;55.90;5.70;;;;;;5114348;28;20473;-66
2021/09/30 10:57:58;;;;;;;1.63;0.70;;;55.80;5.10;;;;;;5094209;28;20428;-65
2021/09/30 11:01:00;;;;;;;2.50;1.00;;;55.20;5.10;;;;;;5111521;28;20758;-66
2021/09/30 11:03:28;;;;;;;3.40;1.60;;;54.00;4.30;;;;;;5112484;28;20441;-65
2021/09/30 11:06:19;;;;;;;4.40;2.50;;;50.90;5.90;;;;;;5114264;28;20462;-65
2021/09/30 11:08:50;;;;;;;4.03;1.30;;;49.40;6.60;;;;;;5114059;28;20428;-66
2021/09/30 11:11:25;;;;;;;2.80;1.17;;;50.50;6.90;;;;;;5113651;28;20480;-65
2021/09/30 11:14:38;;;;;;;2.97;1.00;;;49.00;5.70;;;;;;5114446;28;20915;-65
2021/09/30 11:17:07;;;;;;;3.00;1.40;;;44.50;6.60;;;;;;5102062;28;20560;-65
2021/09/30 11:19:41;;;;;;;2.13;0.87;;;40.60;8.80;;;;;;5108735;28;20447;-64
2021/09/30 11:22:11;;;;;;;1.87;0.70;;;38.90;11.20;;;;;;5093539;28;20427;-64
2021/09/30 11:24:53;;;;;;;2.37;0.80;;;40.80;11.70;;;;;;5094844;28;20437;-64
2021/09/30 11:27:38;;;;;;;3.53;1.50;;;43.70;10.30;;;;;;5114218;28;20516;-64
2021/09/30 11:30:20;;;;;;;6.00;3.37;;;45.40;8.60;;;;;;5113695;28;20477;-65
2021/09/30 11:32:49;;;;;;;3.13;1.00;;;43.60;8.10;;;;;;5111977;28;20427;-64
2021/09/30 11:35:16;;;;;;;3.60;1.03;;;42.20;10.50;;;;;;5113970;28;20460;-66
2021/09/30 11:37:45;;;;;;;2.60;0.80;;;43.90;10.90;;;;;;5113388;28;20842;-65
2021/09/30 11:40:18;;;;;;;3.90;1.00;;;46.30;9.40;;;;;;5113694;28;20478;-65
2021/09/30 11:42:47;;;;;;;3.13;1.20;;;48.40;8.20;;;;;;5113643;28;20779;-65
2021/09/30 11:45:18;;;;;;;1.97;0.90;;;49.70;7.00;;;;;;5113978;28;20892;-65
2021/09/30 11:47:48;;;;;;;3.10;1.40;;;50.50;7.20;;;;;;5114211;28;20436;-65
2021/09/30 11:50:18;;;;;;;3.10;1.00;;;51.30;7.20;;;;;;5113897;28;20473;-65
2021/09/30 11:52:54;;;;;;;2.60;1.87;;;52.10;6.80;;;;;;5113816;28;20418;-66
2021/09/30 11:55:21;;;;;;;2.60;0.90;;;52.80;6.30;;;;;;5113922;28;20434;-65
2021/09/30 11:57:54;;;;;;;2.90;0.73;;;53.10;5.90;;;;;;5113844;28;20434;-65
2021/09/30 12:00:21;;;;;;;3.83;1.00;;;52.80;6.10;;;;;;5113824;28;20430;-66
2021/09/30 12:03:02;;;;;;;1.90;0.73;;;52.20;6.10;;;;;;5113746;28;20908;-66
2021/09/30 12:05:31;;;;;;;1.80;0.70;;;52.30;6.20;;;;;;5113489;28;20756;-65
2021/09/30 12:07:59;;;;;;;1.63;0.70;;;51.70;5.70;;;;;;5113566;28;20836;-65
2021/09/30 12:10:28;;;;;;;1.90;0.60;;;51.00;5.90;;;;;;5113443;28;20509;-65
2021/09/30 12:12:55;;;;;;;2.60;1.07;;;51.00;6.00;;;;;;5113662;28;20509;-66
2021/09/30 12:15:23;;;;;;;2.03;1.00;;;51.10;6.30;;;;;;5113221;28;20454;-65
2021/09/30 12:17:50;;;;;;;2.43;0.90;;;51.10;6.30;;;;;;5113481;28;20945;-66
2021/09/30 12:20:20;;;;;;;1.97;0.70;;;50.80;6.50;;;;;;5113512;28;20441;-66
2021/09/30 12:22:48;;;;;;;2.80;0.73;;;50.20;6.60;;;;;;5113469;28;20428;-65
2021/09/30 12:25:18;;;;;;;1.90;0.80;;;49.90;6.80;;;;;;5113549;28;20524;-66
2021/09/30 12:27:46;;;;;;;2.40;0.90;;;50.00;6.60;;;;;;5113416;28;20516;-68
2021/09/30 12:30:15;;;;;;;2.53;1.30;;;49.80;6.60;;;;;;5113371;28;20461;-66
2021/09/30 12:32:44;;;;;;;4.50;1.10;;;49.20;6.60;;;;;;5115796;28;20438;-66
2021/09/30 12:35:19;;;;;;;2.43;0.70;;;49.20;6.90;;;;;;5117782;28;20520;-65
2021/09/30 12:37:48;;;;;;;2.27;1.00;;;49.20;6.70;;;;;;5117658;28;20832;-65
2021/09/30 12:40:17;;;;;;;7.00;1.10;;;49.20;6.50;;;;;;5117339;28;20438;-65
2021/09/30 12:42:58;;;;;;;2.87;0.80;;;48.70;6.90;;;;;;5117452;28;20426;-66
2021/09/30 12:45:25;;;;;;;3.13;0.90;;;48.00;6.90;;;;;;5117796;28;20508;-65
2021/09/30 12:48:01;;;;;;;3.17;1.20;;;47.30;7.00;;;;;;5117592;28;20839;-65
2021/09/30 12:50:43;;;;;;;2.17;0.90;;;46.50;8.10;;;;;;5117100;28;20507;-65
2021/09/30 12:53:11;;;;;;;1.93;0.90;;;45.90;7.60;;;;;;5117695;28;20433;-66
2021/09/30 12:55:38;;;;;;;2.63;0.70;;;45.20;7.60;;;;;;5117455;28;20946;-65
2021/09/30 12:58:06;;;;;;;2.03;0.93;;;44.30;8.50;;;;;;5117284;28;20505;-65
2021/09/30 13:00:36;;;;;;;2.40;0.73;;;43.50;9.20;;;;;;5117316;28;20522;-65
2021/09/30 13:03:14;;;;;;;6.23;0.80;;;42.60;9.30;;;;;;5117254;28;20525;-65
2021/09/30 13:05:49;;;;;;;2.20;1.00;;;41.50;9.80;;;;;;5117178;28;20429;-65
2021/09/30 13:08:34;;;;;;;2.53;1.03;;;40.30;10.10;;;;;;5116989;28;20434;-65
2021/09/30 13:11:20;;;;;;;2.40;1.30;;;38.70;10.90;;;;;;5116778;28;20488;-64
2021/09/30 13:13:47;;;;;;;1.87;0.73;;;36.70;12.10;;;;;;5117021;28;20429;-64
2021/09/30 13:16:23;;;;;;;4.47;1.07;;;34.90;12.80;;;;;;5116522;28;20464;-64
2021/09/30 13:18:50;;;;;;;2.33;0.80;;;33.20;14.20;;;;;;5116336;28;20420;-64
2021/09/30 13:21:18;;;;;;;2.77;1.10;;;31.70;15.10;;;;;;5116614;28;20513;-64
2021/09/30 13:23:45;;;;;;;2.17;0.80;;;30.50;15.70;;;;;;5116792;28;20422;-66
2021/09/30 13:26:12;;;;;;;3.03;1.30;;;29.40;17.10;;;;;;5116485;28;20509;-66
2021/09/30 13:28:39;;;;;;;2.90;1.07;;;28.40;18.60;;;;;;5116808;28;20430;-67
2021/09/30 13:31:06;;;;;;;3.70;1.07;;;27.50;19.60;;;;;;5116684;28;20565;-66
2021/09/30 13:33:33;;;;;;;3.60;0.90;;;26.90;21.10;;;;;;5116468;28;20422;-65
2021/09/30 13:36:00;;;;;;;2.80;0.93;;;26.50;22.60;;;;;;5116679;28;20921;-66
2021/09/30 13:38:28;;;;;;;4.70;0.87;;;26.10;22.50;;;;;;5116623;28;20516;-65
2021/09/30 13:40:55;;;;;;;3.70;1.20;;;25.80;24.30;;;;;;5116391;28;20426;-65
2021/09/30 13:43:22;;;;;;;3.97;0.93;;;25.60;24.50;;;;;;5115592;28;20425;-65
2021/09/30 13:45:49;;;;;;;1.90;0.73;;;25.30;24.50;;;;;;5115722;28;20426;-65
2021/09/30 13:48:16;;;;;;;4.90;1.00;;;25.00;25.00;;;;;;5116293;28;20828;-65
2021/09/30 13:50:43;;;;;;;2.43;0.80;;;24.70;26.00;;;;;;5116265;28;20473;-65
2021/09/30 13:53:10;;;;;;;1.90;0.70;;;24.50;26.90;;;;;;5116082;28;20429;-65
2021/09/30 13:55:38;;;;;;;2.20;0.90;;;24.40;27.10;;;;;;5116191;28;20487;-65
2021/09/30 13:58:05;;;;;;;2.57;1.10;;;24.20;27.60;;;;;;5116211;28;20755;-65
2021/09/30 14:00:34;;;;;;;4.33;0.73;;;23.90;26.70;;;;;;5116073;28;20560;-65
2021/09/30 14:03:01;;;;;;;2.10;0.90;;;23.70;27.60;;;;;;5115728;28;20434;-65
2021/09/30 14:05:27;;;;;;;2.00;0.87;;;23.40;27.70;;;;;;5115698;28;20901;-65
2021/09/30 14:07:54;;;;;;;2.07;0.70;;;23.10;27.30;;;;;;5115942;28;20517;-65
2021/09/30 14:10:22;;;;;;;3.10;0.90;;;22.90;28.10;;;;;;5115563;28;20964;-66
2021/09/30 14:12:51;;;;;;;1.80;0.80;;;22.80;28.30;;;;;;5115753;28;20433;-67
2021/09/30 14:15:18;;;;;;;1.60;0.70;;;22.60;28.40;;;;;;5115760;28;20496;-65
2021/09/30 14:17:45;;;;;;;3.33;0.70;;;22.40;28.70;;;;;;5115210;28;20509;-65
2021/09/30 14:20:13;;;;;;;2.70;1.10;;;22.10;28.90;;;;;;5115563;28;20422;-65
2021/09/30 14:22:40;;;;;;;2.33;0.80;;;22.00;29.20;;;;;;5115743;28;20474;-65
2021/09/30 14:25:09;;;;;;;2.47;0.80;;;21.80;29.20;;;;;;5115520;28;20437;-65
2021/09/30 14:27:37;;;;;;;4.60;0.90;;;21.60;30.00;;;;;;5115361;28;20521;-65
2021/09/30 14:30:06;;;;;;;3.60;1.17;;;21.40;29.90;;;;;;5115733;28;20771;-65
2021/09/30 14:32:33;;;;;;;2.23;0.80;;;21.20;30.30;;;;;;5115251;28;20495;-64
2021/09/30 14:35:00;;;;;;;4.23;1.00;;;21.10;30.50;;;;;;5115434;28;20517;-65
2021/09/30 14:37:27;;;;;;;2.73;0.80;;;21.00;30.60;;;;;;5115533;28;20430;-65
2021/09/30 14:39:54;;;;;;;3.10;0.80;;;20.80;30.30;;;;;;5114867;28;20430;-65
2021/09/30 14:42:21;;;;;;;3.80;1.10;;;20.70;30.30;;;;;;5115143;28;20477;-65
2021/09/30 14:44:48;;;;;;;1.80;0.80;;;20.50;30.20;;;;;;5115506;28;20461;-65
2021/09/30 14:47:17;;;;;;;1.80;0.73;;;20.40;30.80;;;;;;5097157;28;20522;-65
2021/09/30 14:49:45;;;;;;;1.90;0.70;;;20.20;30.30;;;;;;5094481;28;20493;-65
2021/09/30 14:52:13;;;;;;;2.13;1.10;;;20.10;31.10;;;;;;5095016;28;20441;-65
2021/09/30 14:54:41;;;;;;;2.10;0.70;;;20.00;31.40;;;;;;5094550;28;20430;-66
2021/09/30 14:57:09;;;;;;;2.67;0.73;;;19.90;32.00;;;;;;5093833;28;20466;-65
2021/09/30 14:59:37;;;;;;;2.43;0.90;;;19.80;33.80;;;;;;5094631;28;20533;-64
2021/09/30 15:02:04;;;;;;;2.20;1.07;;;19.70;33.60;;;;;;5094610;28;20580;-64
2021/09/30 15:04:32;;;;;;;1.80;0.73;;;19.50;33.70;;;;;;5094507;28;20435;-64
2021/09/30 15:07:02;;;;;;;2.13;0.70;;;19.40;34.10;;;;;;5094414;28;20526;-64
2021/09/30 15:09:29;;;;;;;2.17;0.70;;;19.30;34.10;;;;;;5094423;28;20432;-64
2021/09/30 15:11:56;;;;;;;2.83;1.03;;;19.30;33.50;;;;;;5094281;28;20437;-65
2021/09/30 15:14:23;;;;;;;3.10;0.80;;;19.20;34.30;;;;;;5094485;28;20467;-65
2021/09/30 15:16:54;;;;;;;1.80;1.07;;;19.10;34.80;;;;;;5094073;28;20474;-65
2021/09/30 15:19:24;;;;;;;3.43;1.43;;;19.00;34.40;;;;;;5094217;28;20431;-65
2021/09/30 15:21:53;;;;;;;2.83;1.20;;;18.90;34.60;;;;;;5094093;28;20483;-64
2021/09/30 15:24:20;;;;;;;3.77;1.90;;;18.90;36.10;;;;;;5094246;28;20458;-65
2021/09/30 15:26:49;;;;;;;2.23;1.07;;;18.80;35.70;;;;;;5094141;28;20434;-65
2021/09/30 15:29:18;;;;;;;3.03;0.97;;;18.80;36.00;;;;;;5094283;28;20509;-65
2021/09/30 15:31:46;;;;;;;3.77;0.90;;;18.70;36.00;;;;;;5094016;28;20825;-65
2021/09/30 15:34:13;;;;;;;4.90;1.07;;;18.70;35.90;;;;;;5093979;28;20432;-66
2021/09/30 15:36:40;;;;;;;2.43;1.43;;;18.60;36.10;;;;;;5093969;28;20427;-64